TUI42T EDDF-LFMT
Flight info
| Callsign | TUI42T |
|---|---|
| Flight time | 1h 14m |
| Altitude | 37000 |
| Route | ANEKI2L ANEKI Y163 HERBI Y164 OLBEN DCT INCUS DCT ROMAM A6 MTL DCT NG |
| Aircraft | B738/M-SDE2E3FGHIRWXY/LB1 |
Departure
| Time | 2026-04-16 14:38 |
|---|---|
| Airport | Frankfurt Main Airport (EDDF) |
Arrival
| Time | 2026-04-16 15:52 |
|---|---|
| Airport | Montpellier-Méditerranée Airport (LFMT) |
| Time | Latitude | Longitude | Altitude | Speed | Heading |
|---|---|---|---|---|---|
| 2026-04-16 14:06 | 50.04913 | 8.58865 | 361 ft | 0 kts | 160° |
| 2026-04-16 14:25 | 50.04929 | 8.58855 | 362 ft | 4 kts | 160° |
| 2026-04-16 14:25 | 50.04954 | 8.58841 | 359 ft | 4 kts | 169° |
| 2026-04-16 14:25 | 50.04979 | 8.58842 | 361 ft | 4 kts | 207° |
| 2026-04-16 14:25 | 50.04997 | 8.58868 | 360 ft | 4 kts | 245° |
| 2026-04-16 14:26 | 50.05005 | 8.58899 | 365 ft | 4 kts | 250° |
| 2026-04-16 14:26 | 50.05008 | 8.58911 | 364 ft | 0 kts | 250° |
| 2026-04-16 14:28 | 50.05005 | 8.58898 | 365 ft | 4 kts | 250° |
| 2026-04-16 14:28 | 50.04987 | 8.58825 | 365 ft | 10 kts | 249° |
| 2026-04-16 14:28 | 50.04956 | 8.58696 | 361 ft | 14 kts | 250° |
| 2026-04-16 14:29 | 50.04924 | 8.58559 | 360 ft | 13 kts | 250° |
| 2026-04-16 14:29 | 50.04893 | 8.58428 | 361 ft | 13 kts | 249° |
| 2026-04-16 14:29 | 50.04863 | 8.58299 | 360 ft | 12 kts | 250° |
| 2026-04-16 14:29 | 50.04833 | 8.58175 | 358 ft | 12 kts | 249° |
| 2026-04-16 14:30 | 50.04797 | 8.58035 | 362 ft | 15 kts | 243° |
| 2026-04-16 14:30 | 50.04719 | 8.57906 | 361 ft | 18 kts | 227° |
| 2026-04-16 14:30 | 50.04665 | 8.57724 | 360 ft | 20 kts | 250° |
| 2026-04-16 14:30 | 50.04615 | 8.57512 | 357 ft | 22 kts | 250° |
| 2026-04-16 14:31 | 50.04561 | 8.57289 | 356 ft | 22 kts | 249° |
| 2026-04-16 14:31 | 50.04510 | 8.57071 | 362 ft | 21 kts | 250° |
| 2026-04-16 14:31 | 50.04460 | 8.56861 | 360 ft | 21 kts | 250° |
| 2026-04-16 14:31 | 50.04411 | 8.56656 | 363 ft | 20 kts | 249° |
| 2026-04-16 14:32 | 50.04358 | 8.56435 | 360 ft | 24 kts | 250° |
| 2026-04-16 14:32 | 50.04296 | 8.56175 | 360 ft | 26 kts | 250° |
| 2026-04-16 14:32 | 50.04237 | 8.55924 | 355 ft | 24 kts | 250° |
| 2026-04-16 14:32 | 50.04179 | 8.55689 | 353 ft | 23 kts | 249° |
| 2026-04-16 14:33 | 50.04124 | 8.55461 | 358 ft | 22 kts | 250° |
| 2026-04-16 14:33 | 50.04073 | 8.55238 | 355 ft | 21 kts | 249° |
| 2026-04-16 14:33 | 50.04020 | 8.55027 | 359 ft | 21 kts | 249° |
| 2026-04-16 14:33 | 50.03971 | 8.54818 | 354 ft | 20 kts | 250° |
| 2026-04-16 14:34 | 50.03923 | 8.54615 | 355 ft | 20 kts | 249° |
| 2026-04-16 14:34 | 50.03875 | 8.54420 | 353 ft | 19 kts | 244° |
| 2026-04-16 14:34 | 50.03807 | 8.54247 | 346 ft | 18 kts | 243° |
| 2026-04-16 14:34 | 50.03762 | 8.54066 | 351 ft | 18 kts | 249° |
| 2026-04-16 14:35 | 50.03719 | 8.53887 | 349 ft | 17 kts | 250° |
| 2026-04-16 14:35 | 50.03674 | 8.53703 | 338 ft | 19 kts | 249° |
| 2026-04-16 14:35 | 50.03627 | 8.53516 | 339 ft | 18 kts | 248° |
| 2026-04-16 14:35 | 50.03582 | 8.53334 | 336 ft | 18 kts | 250° |
| 2026-04-16 14:36 | 50.03541 | 8.53160 | 334 ft | 17 kts | 250° |
| 2026-04-16 14:36 | 50.03502 | 8.52989 | 333 ft | 16 kts | 250° |
| 2026-04-16 14:36 | 50.03459 | 8.52828 | 333 ft | 16 kts | 245° |
| 2026-04-16 14:36 | 50.03417 | 8.52673 | 333 ft | 15 kts | 249° |
| 2026-04-16 14:37 | 50.03360 | 8.52595 | 334 ft | 9 kts | 189° |
| 2026-04-16 14:37 | 50.03300 | 8.52595 | 331 ft | 9 kts | 178° |
| 2026-04-16 14:37 | 50.03237 | 8.52596 | 334 ft | 14 kts | 180° |
| 2026-04-16 14:37 | 50.02907 | 8.52598 | 332 ft | 83 kts | 180° |
| 2026-04-16 14:38 | 50.02110 | 8.52607 | 334 ft | 143 kts | 179° |
| 2026-04-16 14:38 | 50.00953 | 8.52617 | 463 ft | 179 kts | 180° |
| 2026-04-16 14:38 | 49.99687 | 8.52631 | 1170 ft | 181 kts | 182° |
| 2026-04-16 14:38 | 49.98486 | 8.52688 | 2132 ft | 175 kts | 179° |
| 2026-04-16 14:39 | 49.97211 | 8.52778 | 2613 ft | 196 kts | 180° |
| 2026-04-16 14:39 | 49.95758 | 8.52883 | 2836 ft | 220 kts | 178° |
| 2026-04-16 14:39 | 49.94219 | 8.53000 | 3312 ft | 227 kts | 179° |
| 2026-04-16 14:39 | 49.92621 | 8.53119 | 3899 ft | 230 kts | 178° |
| 2026-04-16 14:40 | 49.91009 | 8.53238 | 3977 ft | 231 kts | 179° |
| 2026-04-16 14:40 | 49.89410 | 8.53355 | 4165 ft | 231 kts | 179° |
| 2026-04-16 14:40 | 49.87774 | 8.53472 | 4774 ft | 235 kts | 179° |
| 2026-04-16 14:40 | 49.86144 | 8.53588 | 5594 ft | 235 kts | 179° |
| 2026-04-16 14:41 | 49.84498 | 8.53704 | 6348 ft | 238 kts | 180° |
| 2026-04-16 14:41 | 49.82831 | 8.53821 | 7087 ft | 241 kts | 180° |
| 2026-04-16 14:41 | 49.81150 | 8.53939 | 7826 ft | 243 kts | 180° |
| 2026-04-16 14:41 | 49.79471 | 8.54056 | 8560 ft | 246 kts | 179° |
| 2026-04-16 14:42 | 49.77747 | 8.54155 | 9293 ft | 250 kts | 182° |
| 2026-04-16 14:42 | 49.75918 | 8.53999 | 9570 ft | 274 kts | 187° |
| 2026-04-16 14:42 | 49.73988 | 8.53718 | 10162 ft | 284 kts | 187° |
| 2026-04-16 14:42 | 49.71975 | 8.53410 | 10607 ft | 301 kts | 188° |
| 2026-04-16 14:43 | 49.69803 | 8.53083 | 10822 ft | 324 kts | 187° |
| 2026-04-16 14:43 | 49.67532 | 8.52755 | 11366 ft | 335 kts | 187° |
| 2026-04-16 14:43 | 49.65188 | 8.52429 | 12079 ft | 340 kts | 187° |
| 2026-04-16 14:43 | 49.62809 | 8.52105 | 12793 ft | 346 kts | 188° |
| 2026-04-16 14:44 | 49.60390 | 8.51781 | 13579 ft | 350 kts | 188° |
| 2026-04-16 14:44 | 49.57940 | 8.51454 | 14330 ft | 355 kts | 188° |
| 2026-04-16 14:44 | 49.55456 | 8.51125 | 15074 ft | 359 kts | 188° |
| 2026-04-16 14:44 | 49.52991 | 8.50800 | 15841 ft | 362 kts | 188° |
| 2026-04-16 14:45 | 49.50465 | 8.50466 | 16612 ft | 365 kts | 188° |
| 2026-04-16 14:45 | 49.47916 | 8.50130 | 17351 ft | 370 kts | 188° |
| 2026-04-16 14:45 | 49.45332 | 8.49789 | 18094 ft | 374 kts | 188° |
| 2026-04-16 14:45 | 49.42716 | 8.49445 | 18773 ft | 378 kts | 188° |
| 2026-04-16 14:46 | 49.40109 | 8.49102 | 19389 ft | 382 kts | 188° |
| 2026-04-16 14:46 | 49.37443 | 8.48752 | 20023 ft | 386 kts | 188° |
| 2026-04-16 14:46 | 49.34746 | 8.48398 | 20628 ft | 390 kts | 189° |
| 2026-04-16 14:46 | 49.32025 | 8.48040 | 21232 ft | 394 kts | 189° |
| 2026-04-16 14:47 | 49.29312 | 8.47687 | 21826 ft | 398 kts | 189° |
| 2026-04-16 14:47 | 49.26521 | 8.47330 | 22414 ft | 402 kts | 189° |
| 2026-04-16 14:47 | 49.23742 | 8.46979 | 22990 ft | 406 kts | 189° |
| 2026-04-16 14:47 | 49.20904 | 8.46621 | 23537 ft | 410 kts | 189° |
| 2026-04-16 14:48 | 49.18041 | 8.46261 | 24044 ft | 414 kts | 189° |
| 2026-04-16 14:48 | 49.15155 | 8.45899 | 24534 ft | 417 kts | 189° |
| 2026-04-16 14:48 | 49.12242 | 8.45533 | 25036 ft | 419 kts | 189° |
| 2026-04-16 14:48 | 49.09358 | 8.45171 | 25508 ft | 422 kts | 189° |
| 2026-04-16 14:49 | 49.06420 | 8.44778 | 25970 ft | 424 kts | 191° |
| 2026-04-16 14:49 | 49.03517 | 8.43991 | 26424 ft | 423 kts | 197° |
| 2026-04-16 14:49 | 49.00639 | 8.42959 | 26886 ft | 425 kts | 199° |
| 2026-04-16 14:49 | 48.97756 | 8.41877 | 27321 ft | 427 kts | 199° |
| 2026-04-16 14:50 | 48.94897 | 8.40816 | 27755 ft | 431 kts | 198° |
| 2026-04-16 14:50 | 48.91960 | 8.39754 | 28172 ft | 434 kts | 198° |
| 2026-04-16 14:50 | 48.88999 | 8.38707 | 28603 ft | 437 kts | 198° |
| 2026-04-16 14:50 | 48.86023 | 8.37670 | 29023 ft | 440 kts | 198° |
| 2026-04-16 14:51 | 48.83024 | 8.36630 | 29428 ft | 442 kts | 198° |
| 2026-04-16 14:51 | 48.80012 | 8.35585 | 29817 ft | 445 kts | 198° |
| 2026-04-16 14:51 | 48.76981 | 8.34522 | 30181 ft | 448 kts | 198° |
| 2026-04-16 14:51 | 48.73979 | 8.33435 | 30451 ft | 451 kts | 198° |
| 2026-04-16 14:53 | 48.52193 | 8.25515 | 32580 ft | 464 kts | 199° |
| 2026-04-16 14:53 | 48.49039 | 8.24379 | 32946 ft | 465 kts | 199° |
| 2026-04-16 14:54 | 48.45918 | 8.23247 | 33269 ft | 466 kts | 199° |
| 2026-04-16 14:54 | 48.42758 | 8.22096 | 33599 ft | 467 kts | 199° |
| 2026-04-16 14:54 | 48.39598 | 8.20943 | 33953 ft | 468 kts | 199° |
| 2026-04-16 14:54 | 48.36430 | 8.19794 | 34262 ft | 468 kts | 199° |
| 2026-04-16 14:55 | 48.33289 | 8.18650 | 34475 ft | 470 kts | 199° |
| 2026-04-16 14:55 | 48.30117 | 8.17498 | 34801 ft | 469 kts | 198° |
| 2026-04-16 14:55 | 48.26943 | 8.16351 | 35207 ft | 466 kts | 199° |
| 2026-04-16 14:55 | 48.23804 | 8.15148 | 35558 ft | 463 kts | 202° |
| 2026-04-16 14:56 | 48.20771 | 8.13573 | 35862 ft | 460 kts | 206° |
| 2026-04-16 14:56 | 48.17778 | 8.11856 | 36175 ft | 459 kts | 207° |
| 2026-04-16 14:56 | 48.14807 | 8.10102 | 36509 ft | 457 kts | 207° |
| 2026-04-16 14:56 | 48.11882 | 8.08376 | 36805 ft | 457 kts | 207° |
| 2026-04-16 14:57 | 48.08911 | 8.06643 | 37083 ft | 457 kts | 206° |
| 2026-04-16 14:57 | 48.05919 | 8.04921 | 37259 ft | 460 kts | 206° |
| 2026-04-16 14:57 | 47.99924 | 8.01518 | 37233 ft | 462 kts | 206° |
| 2026-04-16 14:58 | 47.90999 | 7.96510 | 37238 ft | 456 kts | 206° |
| 2026-04-16 14:59 | 47.85047 | 7.93173 | 37233 ft | 457 kts | 206° |
| 2026-04-16 14:59 | 47.79074 | 7.89824 | 37219 ft | 459 kts | 206° |
| 2026-04-16 15:00 | 47.73073 | 7.86478 | 37206 ft | 460 kts | 205° |
| 2026-04-16 15:00 | 47.67087 | 7.83148 | 37217 ft | 461 kts | 205° |
| 2026-04-16 15:01 | 47.61089 | 7.79818 | 37211 ft | 462 kts | 205° |
| 2026-04-16 15:01 | 47.55051 | 7.76474 | 37216 ft | 462 kts | 205° |
| 2026-04-16 15:02 | 47.49045 | 7.73155 | 37208 ft | 463 kts | 205° |
| 2026-04-16 15:02 | 47.42991 | 7.69817 | 37213 ft | 462 kts | 205° |
| 2026-04-16 15:03 | 47.36987 | 7.66514 | 37219 ft | 461 kts | 205° |
| 2026-04-16 15:03 | 47.31021 | 7.63092 | 37206 ft | 457 kts | 211° |
| 2026-04-16 15:04 | 47.25829 | 7.57958 | 37226 ft | 447 kts | 223° |
| 2026-04-16 15:04 | 47.20917 | 7.52302 | 37222 ft | 447 kts | 223° |
| 2026-04-16 15:05 | 47.15993 | 7.46680 | 37214 ft | 447 kts | 223° |
| 2026-04-16 15:05 | 47.11077 | 7.41135 | 37198 ft | 448 kts | 222° |
| 2026-04-16 15:06 | 47.06119 | 7.35579 | 37217 ft | 448 kts | 222° |
| 2026-04-16 15:06 | 47.01170 | 7.30052 | 37228 ft | 449 kts | 222° |
| 2026-04-16 15:07 | 46.96186 | 7.24496 | 37208 ft | 449 kts | 222° |
| 2026-04-16 15:07 | 46.91227 | 7.18981 | 37229 ft | 449 kts | 222° |
| 2026-04-16 15:08 | 46.86245 | 7.13452 | 37236 ft | 449 kts | 222° |
| 2026-04-16 15:08 | 46.82096 | 7.08859 | 37233 ft | 449 kts | 222° |
| 2026-04-16 15:09 | 46.77090 | 7.03328 | 37241 ft | 449 kts | 222° |
| 2026-04-16 15:09 | 46.72123 | 6.97854 | 37228 ft | 449 kts | 221° |
| 2026-04-16 15:10 | 46.67119 | 6.92352 | 37235 ft | 450 kts | 221° |
| 2026-04-16 15:10 | 46.62138 | 6.86888 | 37229 ft | 450 kts | 221° |
| 2026-04-16 15:11 | 46.57132 | 6.81410 | 37225 ft | 450 kts | 221° |
| 2026-04-16 15:11 | 46.52146 | 6.75967 | 37212 ft | 449 kts | 221° |
| 2026-04-16 15:12 | 46.47166 | 6.70543 | 37208 ft | 448 kts | 221° |
| 2026-04-16 15:12 | 46.42163 | 6.65106 | 37210 ft | 447 kts | 221° |
| 2026-04-16 15:13 | 46.37203 | 6.59730 | 37199 ft | 447 kts | 221° |
| 2026-04-16 15:13 | 46.32206 | 6.54324 | 37204 ft | 447 kts | 221° |
| 2026-04-16 15:14 | 46.27255 | 6.48982 | 37203 ft | 446 kts | 221° |
| 2026-04-16 15:14 | 46.22269 | 6.43614 | 37207 ft | 445 kts | 221° |
| 2026-04-16 15:15 | 46.17283 | 6.38258 | 37204 ft | 446 kts | 221° |
| 2026-04-16 15:15 | 46.12321 | 6.32940 | 37211 ft | 446 kts | 221° |
| 2026-04-16 15:16 | 46.07332 | 6.27606 | 37188 ft | 446 kts | 221° |
| 2026-04-16 15:16 | 46.02339 | 6.22280 | 37187 ft | 446 kts | 221° |
| 2026-04-16 15:17 | 45.97377 | 6.16998 | 37182 ft | 446 kts | 220° |
| 2026-04-16 15:17 | 45.92372 | 6.11681 | 37190 ft | 446 kts | 220° |
| 2026-04-16 15:18 | 45.87388 | 6.06399 | 37195 ft | 447 kts | 220° |
| 2026-04-16 15:18 | 45.82481 | 6.00976 | 37174 ft | 445 kts | 224° |
| 2026-04-16 15:19 | 45.77724 | 5.95272 | 37186 ft | 445 kts | 224° |
| 2026-04-16 15:19 | 45.73005 | 5.89587 | 37166 ft | 445 kts | 224° |
| 2026-04-16 15:20 | 45.68235 | 5.83905 | 37170 ft | 445 kts | 224° |
| 2026-04-16 15:20 | 45.63478 | 5.78279 | 37186 ft | 446 kts | 224° |
| 2026-04-16 15:21 | 45.58691 | 5.72639 | 37177 ft | 445 kts | 223° |
| 2026-04-16 15:21 | 45.53903 | 5.67011 | 37182 ft | 445 kts | 223° |
| 2026-04-16 15:22 | 45.49154 | 5.61437 | 37190 ft | 444 kts | 223° |
| 2026-04-16 15:22 | 45.44387 | 5.55856 | 37193 ft | 444 kts | 223° |
| 2026-04-16 15:23 | 45.39601 | 5.50265 | 37100 ft | 446 kts | 223° |
| 2026-04-16 15:23 | 45.37185 | 5.47445 | 36808 ft | 448 kts | 223° |
| 2026-04-16 15:23 | 45.34768 | 5.44630 | 36552 ft | 446 kts | 223° |
| 2026-04-16 15:23 | 45.32384 | 5.41857 | 36304 ft | 445 kts | 223° |
| 2026-04-16 15:24 | 45.29999 | 5.39087 | 35927 ft | 440 kts | 223° |
| 2026-04-16 15:24 | 45.27621 | 5.36326 | 35298 ft | 441 kts | 223° |
| 2026-04-16 15:24 | 45.25225 | 5.33545 | 34561 ft | 446 kts | 223° |
| 2026-04-16 15:24 | 45.22832 | 5.30770 | 33731 ft | 452 kts | 223° |
| 2026-04-16 15:25 | 45.20387 | 5.27938 | 32937 ft | 455 kts | 223° |
| 2026-04-16 15:25 | 45.17921 | 5.25088 | 32241 ft | 456 kts | 222° |
| 2026-04-16 15:25 | 45.15464 | 5.22252 | 31557 ft | 456 kts | 222° |
| 2026-04-16 15:25 | 45.13021 | 5.19436 | 30853 ft | 456 kts | 222° |
| 2026-04-16 15:26 | 45.10512 | 5.16630 | 30066 ft | 460 kts | 218° |
| 2026-04-16 15:26 | 45.07750 | 5.14291 | 29170 ft | 464 kts | 210° |
| 2026-04-16 15:26 | 45.04875 | 5.12293 | 28289 ft | 465 kts | 208° |
| 2026-04-16 15:26 | 45.01945 | 5.10312 | 27382 ft | 467 kts | 208° |
| 2026-04-16 15:27 | 44.99016 | 5.08331 | 26741 ft | 462 kts | 208° |
| 2026-04-16 15:27 | 44.96155 | 5.06376 | 26117 ft | 458 kts | 208° |
| 2026-04-16 15:27 | 44.93299 | 5.04404 | 25502 ft | 454 kts | 208° |
| 2026-04-16 15:27 | 44.90470 | 5.02436 | 24904 ft | 451 kts | 210° |
| 2026-04-16 15:28 | 44.87661 | 5.00476 | 24317 ft | 447 kts | 209° |
| 2026-04-16 15:28 | 44.84877 | 4.98535 | 23800 ft | 442 kts | 209° |
| 2026-04-16 15:28 | 44.82166 | 4.96647 | 23279 ft | 437 kts | 210° |
| 2026-04-16 15:28 | 44.79448 | 4.94757 | 22735 ft | 431 kts | 209° |
| 2026-04-16 15:29 | 44.76782 | 4.92901 | 22319 ft | 424 kts | 208° |
| 2026-04-16 15:29 | 44.74187 | 4.91102 | 21916 ft | 416 kts | 209° |
| 2026-04-16 15:29 | 44.71575 | 4.89290 | 21541 ft | 421 kts | 209° |
| 2026-04-16 15:29 | 44.68927 | 4.87431 | 21155 ft | 424 kts | 208° |
| 2026-04-16 15:30 | 44.66318 | 4.85594 | 20790 ft | 421 kts | 210° |
| 2026-04-16 15:30 | 44.63707 | 4.83756 | 20414 ft | 418 kts | 210° |
| 2026-04-16 15:30 | 44.61101 | 4.81925 | 20045 ft | 416 kts | 208° |
| 2026-04-16 15:30 | 44.58518 | 4.80116 | 19682 ft | 413 kts | 208° |
| 2026-04-16 15:31 | 44.55946 | 4.78317 | 19317 ft | 411 kts | 208° |
| 2026-04-16 15:31 | 44.53318 | 4.76693 | 18972 ft | 410 kts | 205° |
| 2026-04-16 15:31 | 44.50670 | 4.75236 | 18615 ft | 409 kts | 202° |
| 2026-04-16 15:31 | 44.48033 | 4.73841 | 18241 ft | 408 kts | 202° |
| 2026-04-16 15:32 | 44.45376 | 4.72442 | 17845 ft | 406 kts | 203° |
| 2026-04-16 15:32 | 44.42731 | 4.71048 | 17449 ft | 404 kts | 203° |
| 2026-04-16 15:32 | 44.40116 | 4.69662 | 17061 ft | 399 kts | 202° |
| 2026-04-16 15:32 | 44.37542 | 4.68287 | 16667 ft | 390 kts | 202° |
| 2026-04-16 15:33 | 44.35065 | 4.66960 | 16291 ft | 382 kts | 204° |
| 2026-04-16 15:33 | 44.32605 | 4.65639 | 15916 ft | 375 kts | 202° |
| 2026-04-16 15:33 | 44.30177 | 4.64332 | 15546 ft | 369 kts | 202° |
| 2026-04-16 15:33 | 44.27794 | 4.63051 | 15173 ft | 363 kts | 203° |
| 2026-04-16 15:34 | 44.25477 | 4.61805 | 14805 ft | 359 kts | 203° |
| 2026-04-16 15:34 | 44.23155 | 4.60558 | 14458 ft | 355 kts | 203° |
| 2026-04-16 15:34 | 44.20868 | 4.59331 | 14106 ft | 351 kts | 202° |
| 2026-04-16 15:34 | 44.18597 | 4.58114 | 13733 ft | 347 kts | 202° |
| 2026-04-16 15:35 | 44.16354 | 4.56912 | 13335 ft | 343 kts | 202° |
| 2026-04-16 15:35 | 44.14132 | 4.55723 | 12949 ft | 340 kts | 203° |
| 2026-04-16 15:35 | 44.11952 | 4.54558 | 12567 ft | 338 kts | 203° |
| 2026-04-16 15:35 | 44.09765 | 4.53391 | 12186 ft | 335 kts | 202° |
| 2026-04-16 15:36 | 44.07591 | 4.52231 | 11810 ft | 333 kts | 202° |
| 2026-04-16 15:36 | 44.05422 | 4.51075 | 11439 ft | 331 kts | 202° |
| 2026-04-16 15:36 | 44.03271 | 4.49929 | 11069 ft | 330 kts | 202° |
| 2026-04-16 15:36 | 44.01163 | 4.48807 | 10826 ft | 325 kts | 202° |
| 2026-04-16 15:37 | 43.99050 | 4.47684 | 10583 ft | 325 kts | 201° |
| 2026-04-16 15:37 | 43.96935 | 4.46559 | 10345 ft | 325 kts | 201° |
| 2026-04-16 15:37 | 43.94800 | 4.45425 | 10177 ft | 330 kts | 201° |
| 2026-04-16 15:37 | 43.92645 | 4.44281 | 10133 ft | 331 kts | 202° |
| 2026-04-16 15:38 | 43.90502 | 4.43144 | 10105 ft | 327 kts | 202° |
| 2026-04-16 15:38 | 43.88405 | 4.42034 | 10102 ft | 326 kts | 201° |
| 2026-04-16 15:38 | 43.86285 | 4.40856 | 10100 ft | 327 kts | 208° |
| 2026-04-16 15:38 | 43.84522 | 4.38911 | 10112 ft | 324 kts | 229° |
| 2026-04-16 15:39 | 43.83038 | 4.36595 | 10107 ft | 325 kts | 229° |
| 2026-04-16 15:39 | 43.81547 | 4.34229 | 10102 ft | 326 kts | 230° |
| 2026-04-16 15:39 | 43.80051 | 4.31863 | 10101 ft | 325 kts | 230° |
| 2026-04-16 15:39 | 43.78576 | 4.29545 | 10086 ft | 313 kts | 229° |
| 2026-04-16 15:40 | 43.77181 | 4.27367 | 10082 ft | 299 kts | 229° |
| 2026-04-16 15:40 | 43.75720 | 4.25421 | 10024 ft | 288 kts | 213° |
| 2026-04-16 15:40 | 43.73882 | 4.24490 | 9956 ft | 279 kts | 189° |
| 2026-04-16 15:40 | 43.71968 | 4.24303 | 9872 ft | 271 kts | 183° |
| 2026-04-16 15:41 | 43.70099 | 4.24217 | 9626 ft | 268 kts | 183° |
| 2026-04-16 15:41 | 43.68216 | 4.24163 | 9248 ft | 271 kts | 182° |
| 2026-04-16 15:41 | 43.66361 | 4.24111 | 9023 ft | 269 kts | 183° |
| 2026-04-16 15:41 | 43.64472 | 4.24063 | 8660 ft | 272 kts | 182° |
| 2026-04-16 15:42 | 43.62562 | 4.24023 | 8297 ft | 275 kts | 182° |
| 2026-04-16 15:42 | 43.60664 | 4.23986 | 8067 ft | 273 kts | 182° |
| 2026-04-16 15:42 | 43.58759 | 4.23939 | 7742 ft | 274 kts | 182° |
| 2026-04-16 15:42 | 43.56822 | 4.23895 | 7359 ft | 279 kts | 182° |
| 2026-04-16 15:43 | 43.54934 | 4.23845 | 7275 ft | 270 kts | 182° |
| 2026-04-16 15:43 | 43.53064 | 4.23774 | 7061 ft | 267 kts | 182° |
| 2026-04-16 15:43 | 43.51201 | 4.23695 | 6795 ft | 267 kts | 182° |
| 2026-04-16 15:43 | 43.49338 | 4.23593 | 6513 ft | 267 kts | 186° |
| 2026-04-16 15:44 | 43.47582 | 4.22835 | 6211 ft | 265 kts | 209° |
| 2026-04-16 15:44 | 43.45968 | 4.21601 | 5966 ft | 263 kts | 212° |
| 2026-04-16 15:44 | 43.44413 | 4.20358 | 5616 ft | 261 kts | 212° |
| 2026-04-16 15:44 | 43.42836 | 4.19089 | 5197 ft | 262 kts | 212° |
| 2026-04-16 15:45 | 43.41276 | 4.17825 | 4938 ft | 256 kts | 212° |
| 2026-04-16 15:45 | 43.39758 | 4.16585 | 4540 ft | 256 kts | 212° |
| 2026-04-16 15:45 | 43.38195 | 4.15410 | 4167 ft | 256 kts | 200° |
| 2026-04-16 15:45 | 43.36440 | 4.15162 | 3797 ft | 256 kts | 169° |
| 2026-04-16 15:46 | 43.34829 | 4.16156 | 3494 ft | 253 kts | 137° |
| 2026-04-16 15:46 | 43.33833 | 4.18044 | 3240 ft | 246 kts | 107° |
| 2026-04-16 15:46 | 43.33682 | 4.20318 | 3062 ft | 238 kts | 73° |
| 2026-04-16 15:46 | 43.34407 | 4.22260 | 3091 ft | 227 kts | 43° |
| 2026-04-16 15:47 | 43.35749 | 4.23315 | 3068 ft | 223 kts | 11° |
| 2026-04-16 15:47 | 43.37299 | 4.23184 | 2937 ft | 229 kts | 341° |
| 2026-04-16 15:47 | 43.38730 | 4.22226 | 2849 ft | 233 kts | 333° |
| 2026-04-16 15:47 | 43.40154 | 4.21136 | 2724 ft | 232 kts | 333° |
| 2026-04-16 15:48 | 43.41548 | 4.20050 | 2572 ft | 228 kts | 333° |
| 2026-04-16 15:48 | 43.42924 | 4.18971 | 2439 ft | 228 kts | 332° |
| 2026-04-16 15:48 | 43.44325 | 4.17889 | 2324 ft | 232 kts | 332° |
| 2026-04-16 15:48 | 43.45745 | 4.16796 | 2202 ft | 234 kts | 332° |
| 2026-04-16 15:49 | 43.47158 | 4.15710 | 2084 ft | 235 kts | 332° |
| 2026-04-16 15:49 | 43.48571 | 4.14619 | 2034 ft | 228 kts | 331° |
| 2026-04-16 15:49 | 43.49693 | 4.13132 | 2014 ft | 221 kts | 304° |
| 2026-04-16 15:49 | 43.50525 | 4.11394 | 2005 ft | 220 kts | 308° |
| 2026-04-16 15:50 | 43.51402 | 4.09737 | 1997 ft | 205 kts | 308° |
| 2026-04-16 15:50 | 43.52235 | 4.08162 | 1730 ft | 203 kts | 308° |
| 2026-04-16 15:50 | 43.53032 | 4.06598 | 1463 ft | 194 kts | 306° |
| 2026-04-16 15:50 | 43.53781 | 4.05114 | 1212 ft | 183 kts | 305° |
| 2026-04-16 15:51 | 43.54478 | 4.03739 | 993 ft | 169 kts | 305° |
| 2026-04-16 15:51 | 43.55117 | 4.02478 | 765 ft | 154 kts | 302° |
| 2026-04-16 15:51 | 43.55707 | 4.01300 | 559 ft | 147 kts | 301° |
| 2026-04-16 15:51 | 43.56296 | 4.00157 | 374 ft | 144 kts | 302° |
| 2026-04-16 15:52 | 43.56871 | 3.99024 | 210 ft | 147 kts | 301° |
| 2026-04-16 15:52 | 43.57455 | 3.97871 | 31 ft | 144 kts | 301° |
| 2026-04-16 15:52 | 43.57974 | 3.96827 | 15 ft | 117 kts | 305° |
| 2026-04-16 15:52 | 43.58312 | 3.96166 | 14 ft | 43 kts | 304° |
| 2026-04-16 15:53 | 43.58460 | 3.95868 | 9 ft | 34 kts | 304° |
| 2026-04-16 15:53 | 43.58570 | 3.95646 | 10 ft | 18 kts | 294° |
| 2026-04-16 15:53 | 43.58528 | 3.95505 | 11 ft | 17 kts | 223° |
| 2026-04-16 15:53 | 43.58477 | 3.95488 | 12 ft | 8 kts | 161° |
| 2026-04-16 15:54 | 43.58423 | 3.95539 | 12 ft | 10 kts | 133° |
| 2026-04-16 15:54 | 43.58383 | 3.95621 | 12 ft | 11 kts | 124° |
| 2026-04-16 15:54 | 43.58327 | 3.95735 | 11 ft | 17 kts | 124° |
| 2026-04-16 15:54 | 43.58269 | 3.95850 | 13 ft | 12 kts | 125° |
| 2026-04-16 15:55 | 43.58216 | 3.95953 | 14 ft | 14 kts | 124° |
| 2026-04-16 15:55 | 43.58161 | 3.96065 | 13 ft | 14 kts | 124° |
| 2026-04-16 15:55 | 43.58107 | 3.96171 | 15 ft | 13 kts | 125° |
| 2026-04-16 15:55 | 43.58062 | 3.96258 | 14 ft | 8 kts | 135° |
| 2026-04-16 15:56 | 43.58010 | 3.96236 | 15 ft | 8 kts | 216° |
| 2026-04-16 15:56 | 43.57979 | 3.96204 | 14 ft | 8 kts | 224° |
| 2026-04-16 15:56 | 43.57977 | 3.96110 | 14 ft | 8 kts | 297° |
| 2026-04-16 15:56 | 43.57991 | 3.96080 | 14 ft | 0 kts | 298° |
| 2026-04-16 15:57 | 43.57990 | 3.96062 | 14 ft | 4 kts | 250° |
| 2026-04-16 15:57 | 43.57972 | 3.96004 | 14 ft | 5 kts | 274° |
| 2026-04-16 15:57 | 43.57990 | 3.95985 | 15 ft | 5 kts | 352° |
| 2026-04-16 15:58 | 43.58016 | 3.96015 | 15 ft | 5 kts | 76° |
| 2026-04-16 15:58 | 43.57996 | 3.96077 | 17 ft | 5 kts | 123° |
| 2026-04-16 15:58 | 43.57981 | 3.96104 | 14 ft | 5 kts | 137° |
| 2026-04-16 15:58 | 43.57948 | 3.96099 | 14 ft | 5 kts | 226° |
| 2026-04-16 15:59 | 43.57930 | 3.96033 | 14 ft | 0 kts | 257° |
| 2026-04-16 15:59 | 43.57929 | 3.96030 | 14 ft | 0 kts | 256° |